createdAt,value
2018-05-11T00:00:25.275Z,0.00
2018-05-11T00:01:25.206Z,0.00
2018-05-11T00:02:25.114Z,0.00
2018-05-11T00:03:25.036Z,0.00
2018-05-11T00:04:24.988Z,0.00
2018-05-11T00:05:24.879Z,0.00
2018-05-11T00:06:24.797Z,0.00
2018-05-11T00:07:24.729Z,0.00
2018-05-11T00:08:24.657Z,0.00
2018-05-11T00:09:24.566Z,0.00
2018-05-11T00:10:24.476Z,0.00
2018-05-11T00:11:24.412Z,0.00
2018-05-11T00:12:24.316Z,0.00
2018-05-11T00:13:24.254Z,0.00
2018-05-11T00:14:24.178Z,0.00
2018-05-11T00:15:25.087Z,0.00
2018-05-11T00:16:24.003Z,0.00
2018-05-11T00:17:23.919Z,0.00
2018-05-11T00:18:23.830Z,0.00
2018-05-11T00:19:23.781Z,0.00
2018-05-11T00:20:23.703Z,0.00
2018-05-11T00:21:23.603Z,0.00
2018-05-11T00:22:23.520Z,0.00
2018-05-11T00:23:23.478Z,0.00
2018-05-11T00:24:23.379Z,0.00
2018-05-11T00:25:23.285Z,0.00
2018-05-11T00:26:23.195Z,0.00
2018-05-11T00:27:23.121Z,0.00
2018-05-11T00:28:23.042Z,0.00
2018-05-11T00:29:23.000Z,0.00
2018-05-11T00:30:22.885Z,0.00
2018-05-11T00:31:22.799Z,0.00
2018-05-11T00:32:22.716Z,0.00
2018-05-11T00:33:22.646Z,0.00
2018-05-11T00:34:22.577Z,0.00
2018-05-11T00:35:22.508Z,0.00
2018-05-11T00:36:22.403Z,0.00
2018-05-11T00:39:04.502Z,0.00
2018-05-11T00:40:05.463Z,0.00
2018-05-11T00:41:04.357Z,0.00
2018-05-11T00:42:04.266Z,0.00
2018-05-11T00:43:04.187Z,0.00
2018-05-11T00:45:46.102Z,0.00
2018-05-11T00:46:46.185Z,0.00
2018-05-11T00:47:45.890Z,0.00
2018-05-11T00:48:47.783Z,0.00
2018-05-11T00:49:45.707Z,0.00
2018-05-11T00:50:45.615Z,0.00
2018-05-11T00:51:45.568Z,0.00
2018-05-11T00:52:45.451Z,0.00
2018-05-11T00:53:45.375Z,0.00
2018-05-11T00:54:45.289Z,0.00
2018-05-11T00:55:45.217Z,0.00
2018-05-11T00:56:45.137Z,0.00
2018-05-11T00:57:45.064Z,0.00
2018-05-11T00:58:44.972Z,0.00
2018-05-11T00:59:44.888Z,0.00
2018-05-11T01:00:44.817Z,0.00
2018-05-11T01:01:44.730Z,0.00
2018-05-11T01:02:44.680Z,0.00
2018-05-11T01:03:44.575Z,0.00
2018-05-11T01:04:44.496Z,0.00
2018-05-11T01:05:44.440Z,0.00
2018-05-11T01:06:44.371Z,0.00
2018-05-11T01:07:44.277Z,0.00
2018-05-11T01:08:44.181Z,0.00
2018-05-11T01:09:44.103Z,0.00
2018-05-11T01:12:26.027Z,0.00
2018-05-11T01:13:25.953Z,0.00
2018-05-11T01:14:25.874Z,0.00
2018-05-11T01:15:25.776Z,0.00
2018-05-11T01:16:25.687Z,0.00
2018-05-11T01:17:26.643Z,0.00
2018-05-11T01:18:25.531Z,0.00
2018-05-11T01:19:25.467Z,0.00
2018-05-11T01:20:25.380Z,0.00
2018-05-11T01:21:25.294Z,0.00
2018-05-11T01:22:25.233Z,0.00
2018-05-11T01:23:25.136Z,0.00
2018-05-11T01:24:25.075Z,0.00
2018-05-11T01:25:24.969Z,0.00
2018-05-11T01:26:24.893Z,0.00
2018-05-11T01:27:24.845Z,0.00
2018-05-11T01:28:24.823Z,0.00
2018-05-11T01:29:24.702Z,0.00
2018-05-11T01:30:24.578Z,0.00
2018-05-11T01:31:24.502Z,0.00
2018-05-11T01:32:24.424Z,0.00
2018-05-11T01:35:06.570Z,0.00
2018-05-11T01:36:06.454Z,0.00
2018-05-11T01:37:06.364Z,0.00
2018-05-11T01:38:06.294Z,0.00
2018-05-11T01:39:06.212Z,0.00
2018-05-11T01:40:07.142Z,0.00
2018-05-11T01:41:06.040Z,0.00
2018-05-11T01:42:05.964Z,0.00
2018-05-11T01:43:05.875Z,0.00
2018-05-11T01:44:05.864Z,0.00
2018-05-11T01:45:05.735Z,0.00
2018-05-11T01:46:05.651Z,0.00
2018-05-11T01:47:05.562Z,0.00
2018-05-11T01:48:05.483Z,0.00
2018-05-11T01:49:05.405Z,0.00
2018-05-11T01:50:05.359Z,0.00
2018-05-11T01:51:05.241Z,0.00
2018-05-11T01:53:47.530Z,0.00
2018-05-11T01:54:47.470Z,0.00
2018-05-11T01:55:47.361Z,0.00
2018-05-11T01:56:47.292Z,0.00
2018-05-11T01:57:47.208Z,0.00
2018-05-11T01:58:47.123Z,0.00
2018-05-11T01:59:47.036Z,0.00
2018-05-11T02:00:47.026Z,0.00
2018-05-11T02:01:46.887Z,0.00
2018-05-11T02:02:46.819Z,0.00
2018-05-11T02:03:46.722Z,0.00
2018-05-11T02:04:46.664Z,0.00
2018-05-11T02:05:46.577Z,0.00
2018-05-11T02:06:46.492Z,0.00
2018-05-11T02:07:46.416Z,0.00
2018-05-11T02:08:46.344Z,0.00
2018-05-11T02:09:46.269Z,0.00
2018-05-11T02:10:46.169Z,0.00
2018-05-11T02:11:46.079Z,0.00
2018-05-11T02:12:46.007Z,0.00
2018-05-11T02:13:45.922Z,0.00
2018-05-11T02:14:45.880Z,0.00
2018-05-11T02:15:45.800Z,0.00
2018-05-11T02:16:45.684Z,0.00
2018-05-11T02:17:45.600Z,0.00
2018-05-11T02:18:45.524Z,0.00
2018-05-11T02:19:45.444Z,0.00
2018-05-11T02:20:45.388Z,0.00
2018-05-11T02:21:45.299Z,0.00
2018-05-11T02:22:45.212Z,0.00
2018-05-11T02:23:45.128Z,0.00
2018-05-11T02:24:45.053Z,0.00
2018-05-11T02:25:44.965Z,0.00
2018-05-11T02:26:45.934Z,0.00
2018-05-11T02:27:44.810Z,0.00
2018-05-11T02:28:44.757Z,0.00
2018-05-11T02:29:44.660Z,0.00
2018-05-11T02:30:45.602Z,0.00
2018-05-11T02:31:44.512Z,0.00
2018-05-11T02:32:44.507Z,0.00
2018-05-11T02:33:44.345Z,0.00
2018-05-11T02:34:44.243Z,0.00
2018-05-11T02:35:44.190Z,0.00
2018-05-11T02:36:45.108Z,0.00
2018-05-11T02:37:44.003Z,0.00
2018-05-11T02:38:43.938Z,0.00
2018-05-11T02:39:43.867Z,0.00
2018-05-11T02:40:43.797Z,0.00
2018-05-11T02:41:43.713Z,0.00
2018-05-11T02:42:43.608Z,0.00
2018-05-11T02:43:43.523Z,0.00
2018-05-11T02:44:43.456Z,0.00
2018-05-11T02:45:43.367Z,0.00
2018-05-11T02:46:43.317Z,0.00
2018-05-11T02:47:43.212Z,0.00
2018-05-11T02:50:25.055Z,0.00
2018-05-11T02:51:24.953Z,0.00
2018-05-11T02:52:24.894Z,0.00
2018-05-11T02:53:24.801Z,0.00
2018-05-11T02:54:24.720Z,0.00
2018-05-11T02:55:24.641Z,0.00
2018-05-11T02:56:24.544Z,0.00
2018-05-11T02:57:24.471Z,0.00
2018-05-11T02:58:24.409Z,0.00
2018-05-11T02:59:24.324Z,0.00
2018-05-11T03:00:24.229Z,0.00
2018-05-11T03:03:06.543Z,0.00
2018-05-11T03:04:06.474Z,0.00
2018-05-11T03:05:06.374Z,0.00
2018-05-11T03:06:06.323Z,0.00
2018-05-11T03:07:06.231Z,0.00
2018-05-11T03:08:06.150Z,0.00
2018-05-11T03:09:06.046Z,0.00
2018-05-11T03:10:05.984Z,0.00
2018-05-11T03:11:05.907Z,0.00
2018-05-11T03:13:48.057Z,4.00
2018-05-11T03:14:47.956Z,4.00
2018-05-11T03:15:47.881Z,4.00
2018-05-11T03:16:47.804Z,4.00
2018-05-11T03:17:47.705Z,4.00
2018-05-11T03:18:47.685Z,4.00
2018-05-11T03:19:47.549Z,4.00
2018-05-11T03:22:29.528Z,8.00
2018-05-11T03:25:11.560Z,12.00
2018-05-11T03:26:11.466Z,16.00
2018-05-11T03:27:11.383Z,16.00
2018-05-11T03:29:53.564Z,20.00
2018-05-11T03:30:53.458Z,28.00
2018-05-11T03:31:53.372Z,32.00
2018-05-11T03:32:53.298Z,36.00
2018-05-11T03:33:53.210Z,40.00
2018-05-11T03:34:53.158Z,44.00
2018-05-11T03:35:53.053Z,48.00
2018-05-11T03:36:52.979Z,56.00
2018-05-11T03:37:52.891Z,64.00
2018-05-11T03:38:52.822Z,68.00
2018-05-11T03:39:52.792Z,80.00
2018-05-11T03:40:52.652Z,88.00
2018-05-11T03:41:52.579Z,100.00
2018-05-11T03:42:52.503Z,112.00
2018-05-11T03:43:52.409Z,120.00
2018-05-11T03:44:52.405Z,136.00
2018-05-11T03:45:52.246Z,148.00
2018-05-11T03:46:52.173Z,160.00
2018-05-11T03:47:52.090Z,176.00
2018-05-11T03:48:52.030Z,192.00
2018-05-11T03:49:51.931Z,208.00
2018-05-11T03:50:52.873Z,224.00
2018-05-11T03:51:51.770Z,244.00
2018-05-11T03:52:51.693Z,264.00
2018-05-11T03:53:51.620Z,284.00
2018-05-11T03:54:51.541Z,304.00
2018-05-11T03:55:51.464Z,324.00
2018-05-11T03:56:51.376Z,348.00
2018-05-11T03:57:51.297Z,372.00
2018-05-11T03:58:51.225Z,400.00
2018-05-11T03:59:51.141Z,424.00
2018-05-11T04:00:52.072Z,452.00
2018-05-11T04:01:51.138Z,472.00
2018-05-11T04:02:50.901Z,504.00
2018-05-11T04:03:50.813Z,532.00
2018-05-11T04:06:33.065Z,612.00
2018-05-11T04:07:32.998Z,640.00
2018-05-11T04:08:32.883Z,672.00
2018-05-11T04:09:32.822Z,704.00
2018-05-11T04:10:32.721Z,740.00
2018-05-11T04:13:14.614Z,836.00
2018-05-11T04:15:56.555Z,920.00
2018-05-11T04:16:57.491Z,956.00
2018-05-11T04:17:56.415Z,988.00
2018-05-11T04:18:56.320Z,1020.00
2018-05-11T04:19:56.215Z,1052.00
2018-05-11T04:20:56.184Z,1088.00
2018-05-11T04:21:56.057Z,1120.00
2018-05-11T04:22:57.003Z,1156.00
2018-05-11T04:23:55.905Z,1200.00
2018-05-11T04:26:38.048Z,1324.00
2018-05-11T04:27:38.989Z,1372.00
2018-05-11T04:28:37.902Z,1424.00
2018-05-11T04:29:37.808Z,1476.00
2018-05-11T04:30:37.739Z,1528.00
2018-05-11T04:31:37.654Z,1580.00
2018-05-11T04:32:37.565Z,1624.00
2018-05-11T04:33:37.535Z,1676.00
2018-05-11T04:34:37.404Z,1724.00
2018-05-11T04:35:37.327Z,1772.00
2018-05-11T04:36:37.253Z,1816.00
2018-05-11T04:37:37.179Z,1864.00
2018-05-11T04:38:37.099Z,1912.00
2018-05-11T04:39:38.038Z,1960.00
2018-05-11T04:40:36.928Z,2020.00
2018-05-11T04:41:36.857Z,2080.00
2018-05-11T04:42:36.761Z,2156.00
2018-05-11T04:43:37.706Z,2240.00
2018-05-11T04:44:36.606Z,2312.00
2018-05-11T04:45:36.539Z,2364.00
2018-05-11T04:46:36.436Z,2392.00
2018-05-11T04:49:18.568Z,2436.00
2018-05-11T04:50:18.482Z,2496.00
2018-05-11T04:51:18.405Z,2600.00
2018-05-11T04:52:18.322Z,2740.00
2018-05-11T04:53:18.233Z,2908.00
2018-05-11T04:54:18.156Z,3076.00
2018-05-11T04:55:18.071Z,3192.00
2018-05-11T04:56:18.014Z,3236.00
2018-05-11T04:57:17.909Z,3256.00
2018-05-11T04:58:17.842Z,3288.00
2018-05-11T04:59:17.756Z,3336.00
2018-05-11T05:00:17.686Z,3388.00
2018-05-11T05:01:17.589Z,3412.00
2018-05-11T05:02:17.518Z,3428.00
2018-05-11T05:03:17.424Z,3456.00
2018-05-11T05:04:17.472Z,3516.00
2018-05-11T05:05:17.295Z,3608.00
2018-05-11T05:07:59.579Z,3980.00
2018-05-11T05:08:59.489Z,4124.00
2018-05-11T05:09:59.434Z,4256.00
2018-05-11T05:10:59.329Z,4380.00
2018-05-11T05:11:59.232Z,4516.00
2018-05-11T05:12:59.168Z,4664.00
2018-05-11T05:13:59.089Z,4804.00
2018-05-11T05:14:59.031Z,4852.00
2018-05-11T05:15:58.922Z,4824.00
2018-05-11T05:16:58.865Z,4748.00
2018-05-11T05:17:58.755Z,4676.00
2018-05-11T05:18:58.709Z,4628.00
2018-05-11T05:19:58.633Z,4624.00
2018-05-11T05:20:58.522Z,4636.00
2018-05-11T05:21:58.433Z,4664.00
2018-05-11T05:22:58.391Z,4708.00
2018-05-11T05:23:58.295Z,4768.00
2018-05-11T05:24:59.230Z,4844.00
2018-05-11T05:25:58.120Z,4932.00
2018-05-11T05:26:58.061Z,5032.00
2018-05-11T05:27:57.962Z,5116.00
2018-05-11T05:30:40.084Z,5216.00
2018-05-11T05:33:22.063Z,5360.00
2018-05-11T05:34:22.013Z,5388.00
2018-05-11T05:35:21.923Z,5476.00
2018-05-11T05:38:04.064Z,6240.00
2018-05-11T05:40:46.084Z,7396.00
2018-05-11T05:41:45.993Z,7756.00
2018-05-11T05:42:45.910Z,7968.00
2018-05-11T05:43:45.844Z,8056.00
2018-05-11T05:44:45.762Z,8100.00
2018-05-11T05:45:45.754Z,8172.00
2018-05-11T05:46:45.600Z,8324.00
2018-05-11T05:47:45.518Z,8536.00
2018-05-11T05:48:45.445Z,8768.00
2018-05-11T05:49:45.364Z,8892.00
2018-05-11T05:50:45.264Z,8856.00
2018-05-11T05:51:46.215Z,8664.00
2018-05-11T05:52:45.115Z,8356.00
2018-05-11T05:53:45.038Z,7980.00
2018-05-11T05:54:44.947Z,7708.00
2018-05-11T05:55:44.872Z,7624.00
2018-05-11T05:56:44.830Z,7728.00
2018-05-11T05:57:44.726Z,7984.00
2018-05-11T05:58:44.640Z,8336.00
2018-05-11T05:59:44.565Z,8716.00
2018-05-11T06:00:44.495Z,9096.00
2018-05-11T06:03:26.585Z,9344.00
2018-05-11T06:06:08.564Z,9172.00
2018-05-11T06:07:08.554Z,9704.00
2018-05-11T06:08:08.499Z,10280.00
2018-05-11T06:09:08.434Z,10688.00
2018-05-11T06:10:08.267Z,11404.00
2018-05-11T06:11:08.237Z,11992.00
2018-05-11T06:12:08.109Z,12224.00
2018-05-11T06:13:08.149Z,12356.00
2018-05-11T06:14:07.946Z,12472.00
2018-05-11T06:15:07.955Z,12244.00
2018-05-11T06:16:07.783Z,11588.00
2018-05-11T06:17:07.785Z,11080.00
2018-05-11T06:18:07.616Z,11052.00
2018-05-11T06:19:07.568Z,11392.00
2018-05-11T06:20:07.480Z,11716.00
2018-05-11T06:21:07.475Z,11920.00
2018-05-11T06:22:07.468Z,12112.00
2018-05-11T06:23:07.278Z,11976.00
2018-05-11T06:24:07.155Z,11728.00
2018-05-11T06:25:07.197Z,12252.00
2018-05-11T06:26:06.999Z,12404.00
2018-05-11T06:27:07.035Z,12360.00
2018-05-11T06:28:06.856Z,12556.00
2018-05-11T06:29:06.814Z,12752.00
2018-05-11T06:30:06.676Z,12876.00
2018-05-11T06:31:06.726Z,12908.00
2018-05-11T06:32:06.532Z,12540.00
2018-05-11T06:33:06.593Z,12388.00
2018-05-11T06:34:06.386Z,13012.00
2018-05-11T06:35:06.333Z,13308.00
2018-05-11T06:36:06.214Z,13176.00
2018-05-11T06:37:06.250Z,14472.00
2018-05-11T06:38:06.094Z,15264.00
2018-05-11T06:39:06.057Z,14648.00
2018-05-11T06:40:05.912Z,14284.00
2018-05-11T06:41:05.875Z,16320.00
2018-05-11T06:42:05.773Z,17632.00
2018-05-11T06:43:05.705Z,18272.00
2018-05-11T06:44:05.602Z,18688.00
2018-05-11T06:45:05.583Z,18368.00
2018-05-11T06:46:05.533Z,18048.00
2018-05-11T06:48:47.610Z,18784.00
2018-05-11T06:51:29.586Z,19168.00
2018-05-11T06:54:11.606Z,19968.00
2018-05-11T06:55:11.592Z,19712.00
2018-05-11T06:56:11.475Z,20352.00
2018-05-11T06:57:11.432Z,20608.00
2018-05-11T06:58:11.320Z,20544.00
2018-05-11T07:00:53.656Z,21504.00
2018-05-11T07:01:53.524Z,20864.00
2018-05-11T07:02:53.473Z,21504.00
2018-05-11T07:03:53.471Z,22592.00
2018-05-11T07:04:53.313Z,23424.00
2018-05-11T07:05:53.336Z,23296.00
2018-05-11T07:06:53.162Z,22880.00
2018-05-11T07:09:35.622Z,24640.00
2018-05-11T07:10:35.547Z,25344.00
2018-05-11T07:11:35.443Z,25248.00
2018-05-11T07:12:35.455Z,25504.00
2018-05-11T07:13:35.279Z,25600.00
2018-05-11T07:14:35.301Z,24960.00
2018-05-11T07:15:35.137Z,25344.00
2018-05-11T07:16:35.179Z,25888.00
2018-05-11T07:17:34.989Z,26592.00
2018-05-11T07:20:17.131Z,28576.00
2018-05-11T07:23:03.097Z,28096.00
2018-05-11T07:24:03.089Z,28608.00
2018-05-11T07:25:02.978Z,28576.00
2018-05-11T07:26:03.001Z,29312.00
2018-05-11T07:27:02.791Z,29408.00
2018-05-11T07:28:02.808Z,28960.00
2018-05-11T07:29:02.640Z,27680.00
2018-05-11T07:30:02.638Z,27424.00
2018-05-11T07:31:02.495Z,30240.00
2018-05-11T07:32:02.546Z,32992.00
2018-05-11T07:33:02.370Z,34624.00
2018-05-11T07:34:02.334Z,34912.00
2018-05-11T07:35:02.284Z,35520.00
2018-05-11T07:36:02.232Z,36832.00
2018-05-11T07:37:02.045Z,35840.00
2018-05-11T07:38:02.066Z,37440.00
2018-05-11T07:39:01.908Z,37568.00
2018-05-11T07:40:01.863Z,36544.00
2018-05-11T07:41:01.778Z,36032.00
2018-05-11T07:42:01.760Z,37344.00
2018-05-11T07:43:01.642Z,37856.00
2018-05-11T07:44:01.577Z,37504.00
2018-05-11T07:45:01.450Z,37440.00
2018-05-11T07:46:01.525Z,38816.00
2018-05-11T07:47:01.304Z,39360.00
2018-05-11T07:49:43.607Z,37504.00
2018-05-11T07:50:43.624Z,39200.00
2018-05-11T07:51:43.464Z,40128.00
2018-05-11T07:54:25.646Z,40256.00
2018-05-11T07:55:25.675Z,41888.00
2018-05-11T07:56:25.494Z,43520.00
2018-05-11T07:57:25.431Z,44480.00
2018-05-11T07:58:25.331Z,44064.00
2018-05-11T08:01:07.612Z,42720.00
2018-05-11T08:02:07.709Z,41984.00
2018-05-11T08:03:07.461Z,43392.00
2018-05-11T08:04:07.444Z,44320.00
2018-05-11T08:05:07.332Z,46176.00
2018-05-11T08:06:07.395Z,47936.00
2018-05-11T08:07:07.202Z,45824.00
2018-05-11T08:08:07.172Z,44608.00
2018-05-11T08:09:07.038Z,19168.00
2018-05-11T08:10:07.105Z,18048.00
2018-05-11T08:11:06.890Z,17952.00
2018-05-11T08:12:06.891Z,20000.00
2018-05-11T08:13:06.769Z,33024.00
2018-05-11T08:14:06.807Z,17376.00
2018-05-11T08:15:06.608Z,16544.00
2018-05-11T08:16:06.595Z,16800.00
2018-05-11T08:17:06.482Z,17536.00
2018-05-11T08:18:06.383Z,18752.00
2018-05-11T08:19:06.313Z,22688.00
2018-05-11T08:21:48.644Z,22528.00
2018-05-11T08:22:48.558Z,20832.00
2018-05-11T08:23:48.479Z,21056.00
2018-05-11T08:24:48.396Z,24096.00
2018-05-11T08:25:48.370Z,22592.00
2018-05-11T08:26:48.342Z,21664.00
2018-05-11T08:27:48.205Z,28640.00
2018-05-11T08:30:30.120Z,18208.00
2018-05-11T08:33:12.144Z,26592.00
2018-05-11T08:34:12.048Z,57408.00
2018-05-11T08:35:11.977Z,59552.00
2018-05-11T08:36:11.901Z,22272.00
2018-05-11T08:37:11.832Z,24800.00
2018-05-11T08:38:11.796Z,40608.00
2018-05-11T08:39:11.669Z,42688.00
2018-05-11T08:40:11.593Z,54432.00
2018-05-11T08:41:11.574Z,60416.00
2018-05-11T08:43:53.662Z,27488.00
2018-05-11T08:46:35.623Z,24928.00
2018-05-11T08:47:35.573Z,32704.00
2018-05-11T08:48:35.476Z,63104.00
2018-05-11T08:51:17.631Z,57792.00
2018-05-11T08:52:17.564Z,46656.00
2018-05-11T08:53:17.513Z,29376.00
2018-05-11T08:54:17.419Z,28352.00
2018-05-11T08:55:17.342Z,26784.00
2018-05-11T08:56:17.268Z,31264.00
2018-05-11T08:57:17.200Z,56128.00
2018-05-11T08:58:17.140Z,45792.00
2018-05-11T08:59:17.045Z,44416.00
2018-05-11T09:00:16.986Z,57824.00
2018-05-11T09:01:16.914Z,56224.00
2018-05-11T09:02:16.828Z,59296.00
2018-05-11T09:03:16.768Z,63904.00
2018-05-11T09:04:16.686Z,65120.00
2018-05-11T09:05:16.609Z,66144.00
2018-05-11T09:06:16.543Z,65088.00
2018-05-11T09:07:16.462Z,57280.00
2018-05-11T09:08:16.416Z,20064.00
2018-05-11T09:09:16.347Z,23648.00
2018-05-11T09:10:16.347Z,53728.00
2018-05-11T09:11:16.174Z,22560.00
2018-05-11T09:12:16.135Z,22496.00
2018-05-11T09:13:16.040Z,22848.00
2018-05-11T09:14:16.016Z,21984.00
2018-05-11T09:15:15.895Z,20480.00
2018-05-11T09:17:58.141Z,71424.00
2018-05-11T09:20:40.154Z,72864.00
2018-05-11T09:21:40.099Z,74144.00
2018-05-11T09:22:39.988Z,70624.00
2018-05-11T09:23:39.936Z,72608.00
2018-05-11T09:24:39.844Z,71904.00
2018-05-11T09:25:39.811Z,70880.00
2018-05-11T09:26:39.715Z,66432.00
2018-05-11T09:27:39.739Z,21248.00
2018-05-11T09:28:39.626Z,25248.00
2018-05-11T09:31:21.670Z,82944.00
2018-05-11T09:32:21.588Z,52640.00
2018-05-11T09:33:21.513Z,40704.00
2018-05-11T09:34:21.435Z,76096.00
2018-05-11T09:35:21.374Z,76864.00
2018-05-11T09:36:21.315Z,75936.00
2018-05-11T09:37:21.214Z,78784.00
2018-05-11T09:38:21.154Z,76608.00
2018-05-11T09:39:21.069Z,76000.00
2018-05-11T09:40:21.018Z,76608.00
2018-05-11T09:41:20.977Z,77152.00
2018-05-11T09:42:20.993Z,77248.00
2018-05-11T09:43:20.794Z,80384.00
2018-05-11T09:44:20.809Z,80256.00
2018-05-11T09:45:20.656Z,23104.00
2018-05-11T09:46:21.678Z,22048.00
2018-05-11T09:47:20.529Z,38016.00
2018-05-11T09:48:20.539Z,76224.00
2018-05-11T09:49:20.390Z,83904.00
2018-05-11T09:50:20.337Z,83296.00
2018-05-11T09:51:20.269Z,82112.00
2018-05-11T09:52:21.309Z,81760.00
2018-05-11T09:53:20.104Z,80384.00
2018-05-11T09:54:20.160Z,78592.00
2018-05-11T09:55:19.977Z,79328.00
2018-05-11T09:58:02.187Z,72192.00
2018-05-11T09:59:02.187Z,76000.00
2018-05-11T10:00:02.025Z,59456.00
2018-05-11T10:01:02.101Z,73824.00
2018-05-11T10:02:01.888Z,79808.00
2018-05-11T10:03:01.846Z,83296.00
2018-05-11T10:04:01.746Z,84224.00
2018-05-11T10:05:01.729Z,80000.00
2018-05-11T10:06:01.607Z,80096.00
2018-05-11T10:08:43.671Z,85216.00
2018-05-11T10:09:43.593Z,82144.00
2018-05-11T10:10:43.524Z,80224.00
2018-05-11T10:13:25.685Z,81312.00
2018-05-11T10:14:25.713Z,80192.00
2018-05-11T10:15:25.524Z,79552.00
2018-05-11T10:16:25.515Z,80896.00
2018-05-11T10:17:25.394Z,84320.00
2018-05-11T10:18:26.402Z,86240.00
2018-05-11T10:19:25.276Z,88480.00
2018-05-11T10:20:25.238Z,87264.00
2018-05-11T10:21:25.123Z,84576.00
2018-05-11T10:22:25.151Z,84704.00
2018-05-11T10:23:25.020Z,79776.00
2018-05-11T10:24:24.959Z,80608.00
2018-05-11T10:25:24.852Z,84544.00
2018-05-11T10:26:24.808Z,81856.00
2018-05-11T10:27:24.726Z,78592.00
2018-05-11T10:28:24.819Z,83104.00
2018-05-11T10:29:24.602Z,80032.00
2018-05-11T10:30:24.589Z,80864.00
2018-05-11T10:31:24.464Z,78368.00
2018-05-11T10:32:24.515Z,74432.00
2018-05-11T10:33:24.390Z,69344.00
2018-05-11T10:34:24.315Z,69056.00
2018-05-11T10:35:24.202Z,72896.00
2018-05-11T10:36:24.221Z,76672.00
2018-05-11T10:37:24.064Z,83296.00
2018-05-11T10:38:24.140Z,84384.00
2018-05-11T10:39:23.977Z,85344.00
2018-05-11T10:40:23.935Z,89760.00
2018-05-11T10:41:23.805Z,91296.00
2018-05-11T10:42:23.842Z,91392.00
2018-05-11T10:43:23.671Z,93056.00
2018-05-11T10:44:23.702Z,84672.00
2018-05-11T10:45:23.551Z,85920.00
2018-05-11T10:46:23.691Z,26272.00
2018-05-11T10:47:23.475Z,25536.00
2018-05-11T10:48:23.511Z,27936.00
2018-05-11T10:49:23.378Z,70752.00
2018-05-11T10:50:23.289Z,86432.00
2018-05-11T10:51:23.148Z,88640.00
2018-05-11T10:52:23.222Z,88032.00
2018-05-11T10:53:23.014Z,87392.00
2018-05-11T10:54:23.044Z,87840.00
2018-05-11T10:55:22.884Z,84032.00
2018-05-11T10:56:22.912Z,84896.00
2018-05-11T10:57:22.746Z,86016.00
2018-05-11T10:58:22.769Z,86688.00
2018-05-11T10:59:22.641Z,86336.00
2018-05-11T11:00:22.777Z,88224.00
2018-05-11T11:01:22.628Z,82592.00
2018-05-11T11:02:22.594Z,82624.00
2018-05-11T11:03:22.396Z,83456.00
2018-05-11T11:04:22.293Z,82304.00
2018-05-11T11:05:22.247Z,85024.00
2018-05-11T11:06:22.304Z,86208.00
2018-05-11T11:07:22.089Z,85952.00
2018-05-11T11:08:22.080Z,83296.00
2018-05-11T11:09:21.950Z,76256.00
2018-05-11T11:10:22.023Z,72320.00
2018-05-11T11:11:21.808Z,67360.00
2018-05-11T11:12:21.793Z,68064.00
2018-05-11T11:13:21.672Z,74688.00
2018-05-11T11:14:21.765Z,78688.00
2018-05-11T11:15:21.557Z,76288.00
2018-05-11T11:16:21.528Z,78784.00
2018-05-11T11:17:21.407Z,76288.00
2018-05-11T11:18:21.359Z,69728.00
2018-05-11T11:19:21.284Z,69536.00
2018-05-11T11:22:03.208Z,82592.00
2018-05-11T11:23:03.221Z,86656.00
2018-05-11T11:24:03.076Z,85920.00
2018-05-11T11:25:03.044Z,88608.00
2018-05-11T11:26:02.940Z,83008.00
2018-05-11T11:27:02.986Z,89440.00
2018-05-11T11:28:02.789Z,87648.00
2018-05-11T11:29:02.753Z,90464.00
2018-05-11T11:30:02.658Z,90272.00
2018-05-11T11:31:02.712Z,88960.00
2018-05-11T11:32:02.510Z,88640.00
2018-05-11T11:33:02.576Z,87264.00
2018-05-11T11:34:02.396Z,87968.00
2018-05-11T11:36:44.723Z,89024.00
2018-05-11T11:37:44.698Z,89216.00
2018-05-11T11:38:44.559Z,90656.00
2018-05-11T11:41:26.711Z,67584.00
2018-05-11T11:42:26.750Z,86016.00
2018-05-11T11:43:26.576Z,88448.00
2018-05-11T11:44:26.609Z,92480.00
2018-05-11T11:45:26.434Z,94144.00
2018-05-11T11:46:26.422Z,94848.00
2018-05-11T11:47:26.389Z,92352.00
2018-05-11T11:50:08.207Z,93312.00
2018-05-11T11:51:08.143Z,94144.00
2018-05-11T11:52:08.089Z,85920.00
2018-05-11T11:53:08.070Z,43968.00
2018-05-11T11:54:07.946Z,16556.00
2018-05-11T11:55:07.886Z,15964.00
2018-05-11T11:56:07.816Z,15556.00
2018-05-11T11:57:07.788Z,15192.00
2018-05-11T11:58:07.679Z,14956.00
2018-05-11T11:59:07.604Z,14228.00
2018-05-11T12:00:07.529Z,13860.00
2018-05-11T12:01:07.499Z,14052.00
2018-05-11T12:02:07.423Z,13392.00
2018-05-11T12:03:07.412Z,12972.00
2018-05-11T12:04:07.244Z,12844.00
2018-05-11T12:05:07.292Z,12872.00
2018-05-11T12:06:07.092Z,11876.00
2018-05-11T12:07:07.116Z,11664.00
2018-05-11T12:08:06.977Z,11556.00
2018-05-11T12:09:08.055Z,11436.00
2018-05-11T12:10:06.808Z,11304.00
2018-05-11T12:11:06.842Z,11132.00
2018-05-11T12:12:06.666Z,10984.00
2018-05-11T12:13:06.637Z,10828.00
2018-05-11T12:14:06.514Z,10672.00
2018-05-11T12:15:06.623Z,10520.00
2018-05-11T12:16:06.388Z,10316.00
2018-05-11T12:17:06.316Z,10152.00
2018-05-11T12:18:06.268Z,10056.00
2018-05-11T12:19:06.193Z,10064.00
2018-05-11T12:20:06.082Z,10092.00
2018-05-11T12:21:06.007Z,10224.00
2018-05-11T12:22:05.926Z,10340.00
2018-05-11T12:23:06.069Z,10312.00
2018-05-11T12:24:05.832Z,10224.00
2018-05-11T12:26:47.710Z,9732.00
2018-05-11T12:27:47.687Z,9452.00
2018-05-11T12:28:47.579Z,9044.00
2018-05-11T12:29:47.660Z,8200.00
2018-05-11T12:30:47.412Z,8604.00
2018-05-11T12:31:47.405Z,8712.00
2018-05-11T12:32:47.279Z,7804.00
2018-05-11T12:33:47.220Z,7656.00
2018-05-11T12:34:47.188Z,7804.00
2018-05-11T12:37:29.206Z,11360.00
2018-05-11T12:38:29.223Z,11788.00
2018-05-11T12:39:29.090Z,12272.00
2018-05-11T12:40:29.053Z,12416.00
2018-05-11T12:41:28.914Z,12132.00
2018-05-11T12:42:28.862Z,11388.00
2018-05-11T12:43:28.773Z,11520.00
2018-05-11T12:44:28.795Z,10796.00
2018-05-11T12:45:28.702Z,10460.00
2018-05-11T12:46:28.672Z,9816.00
2018-05-11T12:47:28.559Z,9992.00
2018-05-11T12:48:28.387Z,10508.00
2018-05-11T12:49:28.375Z,10452.00
2018-05-11T12:50:29.286Z,11012.00
2018-05-11T12:51:28.273Z,11780.00
2018-05-11T12:52:28.190Z,11432.00
2018-05-11T12:53:28.132Z,11260.00
2018-05-11T12:54:28.025Z,11440.00
2018-05-11T12:55:27.864Z,11604.00
2018-05-11T12:56:27.857Z,11448.00
2018-05-11T12:57:27.714Z,12312.00
2018-05-11T13:00:09.775Z,14196.00
2018-05-11T13:02:51.722Z,15112.00
2018-05-11T13:05:33.750Z,14156.00
2018-05-11T13:06:33.677Z,12728.00
2018-05-11T13:07:33.621Z,11204.00
2018-05-11T13:08:33.616Z,10688.00
2018-05-11T13:09:33.442Z,10116.00
2018-05-11T13:10:34.445Z,9540.00
2018-05-11T13:11:33.338Z,9300.00
2018-05-11T13:14:15.219Z,10088.00
2018-05-11T13:16:57.259Z,10956.00
2018-05-11T13:17:57.222Z,11692.00
2018-05-11T13:18:57.081Z,12960.00
2018-05-11T13:19:57.037Z,13640.00
2018-05-11T13:20:56.935Z,13384.00
2018-05-11T13:21:56.991Z,12676.00
2018-05-11T13:22:56.764Z,11232.00
2018-05-11T13:25:38.742Z,9312.00
2018-05-11T13:26:38.785Z,9808.00
2018-05-11T13:27:38.583Z,10516.00
2018-05-11T13:28:38.569Z,11128.00
2018-05-11T13:29:38.432Z,11208.00
2018-05-11T13:32:20.766Z,10376.00
2018-05-11T13:33:20.771Z,9764.00
2018-05-11T13:34:20.573Z,9788.00
2018-05-11T13:35:20.549Z,9536.00
2018-05-11T13:36:20.448Z,9272.00
2018-05-11T13:37:20.360Z,9200.00
2018-05-11T13:38:20.302Z,8664.00
2018-05-11T13:39:20.319Z,8612.00
2018-05-11T13:40:20.121Z,8484.00
2018-05-11T13:41:21.075Z,8324.00
2018-05-11T13:42:19.972Z,8524.00
2018-05-11T13:43:19.931Z,8732.00
2018-05-11T13:44:19.850Z,8888.00
2018-05-11T13:45:19.762Z,8676.00
2018-05-11T13:46:19.679Z,8652.00
2018-05-11T13:47:19.604Z,8760.00
2018-05-11T13:48:19.675Z,9072.00
2018-05-11T13:49:19.560Z,9704.00
2018-05-11T13:50:19.368Z,10264.00
2018-05-11T13:53:01.291Z,9832.00